createdAt,value
2019-03-22T00:00:53.838Z,96408.91
2019-03-22T00:03:23.939Z,96408.78
2019-03-22T00:05:54.037Z,96411.69
2019-03-22T00:08:24.221Z,96400.58
2019-03-22T00:10:56.381Z,96400.58
2019-03-22T00:13:26.702Z,96410.41
2019-03-22T00:15:56.788Z,96403.59
2019-03-22T00:18:27.038Z,96403.52
2019-03-22T00:20:57.184Z,96400.49
2019-03-22T00:23:27.332Z,96400.49
2019-03-22T00:25:57.528Z,96394.52
2019-03-22T00:28:27.683Z,96394.72
2019-03-22T00:30:57.807Z,96400.72
2019-03-22T00:33:27.987Z,96396.69
2019-03-22T00:35:58.307Z,96404.27
2019-03-22T00:38:28.381Z,96404.27
2019-03-22T00:40:58.559Z,96405.42
2019-03-22T00:43:28.809Z,96405.42
2019-03-22T00:45:58.942Z,96402.03
2019-03-22T00:48:30.667Z,96399.78
2019-03-22T00:51:00.928Z,96399.78
2019-03-22T00:53:31.140Z,96393.31
2019-03-22T00:56:01.375Z,96404.29
2019-03-22T00:58:31.558Z,96397.81
2019-03-22T01:01:01.812Z,96397.81
2019-03-22T01:03:31.984Z,96397.75
2019-03-22T01:06:02.122Z,96403.75
2019-03-22T01:08:32.302Z,96401.83
2019-03-22T01:11:02.535Z,96394.23
2019-03-22T01:13:32.626Z,96394.88
2019-03-22T01:16:02.807Z,96399.23
2019-03-22T01:18:33.120Z,96398.97
2019-03-22T01:21:03.297Z,96400.00
2019-03-22T01:23:33.569Z,96401.97
2019-03-22T01:26:03.827Z,96393.19
2019-03-22T01:28:34.130Z,96387.94
2019-03-22T01:31:04.223Z,96390.78
2019-03-22T01:33:34.437Z,96390.72
2019-03-22T01:36:05.406Z,96393.91
2019-03-22T01:38:35.505Z,96390.42
2019-03-22T01:41:06.213Z,96388.85
2019-03-22T01:43:36.409Z,96387.21
2019-03-22T01:46:06.811Z,96384.30
2019-03-22T01:48:36.885Z,96382.73
2019-03-22T01:51:06.994Z,96384.99
2019-03-22T01:53:37.133Z,96382.09
2019-03-22T01:56:07.160Z,96385.92
2019-03-22T01:58:37.149Z,96385.09
2019-03-22T02:01:07.333Z,96385.71
2019-03-22T02:03:37.411Z,96390.31
2019-03-22T02:06:07.586Z,96386.78
2019-03-22T02:08:37.777Z,96383.14
2019-03-22T02:11:08.143Z,96380.91
2019-03-22T02:13:38.363Z,96389.36
2019-03-22T02:16:08.502Z,96384.28
2019-03-22T02:18:38.794Z,96389.71
2019-03-22T02:21:09.039Z,96386.05
2019-03-22T02:23:39.228Z,96383.00
2019-03-22T02:26:09.501Z,96389.05
2019-03-22T02:28:39.575Z,96392.48
2019-03-22T02:31:09.838Z,96390.73
2019-03-22T02:33:40.440Z,96396.81
2019-03-22T02:36:10.556Z,96396.42
2019-03-22T02:38:40.729Z,96392.75
2019-03-22T02:41:10.999Z,96400.28
2019-03-22T02:43:41.381Z,96405.08
2019-03-22T02:46:11.641Z,96402.36
2019-03-22T02:48:41.699Z,96405.08
2019-03-22T02:51:11.853Z,96403.72
2019-03-22T02:53:42.091Z,96405.30
2019-03-22T02:56:12.513Z,96404.94
2019-03-22T02:58:42.722Z,96406.31
2019-03-22T03:01:13.029Z,96405.30
2019-03-22T03:03:43.198Z,96403.19
2019-03-22T03:06:13.588Z,96407.55
2019-03-22T03:08:43.765Z,96407.27
2019-03-22T03:11:14.016Z,96407.47
2019-03-22T03:13:44.174Z,96409.91
2019-03-22T03:16:14.429Z,96398.67
2019-03-22T03:18:44.520Z,96398.88
2019-03-22T03:21:14.615Z,96403.14
2019-03-22T03:23:44.841Z,96385.78
2019-03-22T03:26:15.086Z,96399.94
2019-03-22T03:28:45.500Z,96396.69
2019-03-22T03:31:15.745Z,96401.79
2019-03-22T03:33:45.916Z,96401.45
2019-03-22T03:36:16.041Z,96404.30
2019-03-22T03:38:46.282Z,96403.66
2019-03-22T03:41:16.641Z,96399.53
2019-03-22T03:43:46.825Z,96400.17
2019-03-22T03:46:16.998Z,96400.36
2019-03-22T03:48:47.343Z,96399.69
2019-03-22T03:51:17.628Z,96403.60
2019-03-22T03:53:47.789Z,96394.80
2019-03-22T03:56:17.955Z,96402.86
2019-03-22T03:58:52.814Z,96399.68
2019-03-22T04:01:20.253Z,96400.17
2019-03-22T04:03:50.242Z,96397.58
2019-03-22T04:06:20.509Z,96405.82
2019-03-22T04:08:50.468Z,96404.41
2019-03-22T04:11:20.670Z,96408.16
2019-03-22T04:13:50.828Z,96406.56
2019-03-22T04:16:20.987Z,96406.70
2019-03-22T04:18:51.093Z,96403.90
2019-03-22T04:21:21.482Z,96403.96
2019-03-22T04:23:51.562Z,96408.27
2019-03-22T04:26:21.633Z,96403.83
2019-03-22T04:29:06.186Z,96402.95
2019-03-22T04:31:23.702Z,96400.27
2019-03-22T04:33:53.856Z,96403.66
2019-03-22T04:36:24.030Z,96401.74
2019-03-22T04:38:54.251Z,96404.87
2019-03-22T04:41:24.445Z,96414.59
2019-03-22T04:43:54.645Z,96414.59
2019-03-22T04:46:25.812Z,96412.08
2019-03-22T04:48:57.665Z,96418.91
2019-03-22T04:51:28.265Z,96416.40
2019-03-22T04:54:02.127Z,96419.33
2019-03-22T04:56:35.256Z,96419.72
2019-03-22T04:59:18.496Z,96425.59
2019-03-22T05:01:42.816Z,96424.31
2019-03-22T05:04:13.628Z,96421.80
2019-03-22T05:06:45.185Z,96427.16
2019-03-22T05:09:17.523Z,96432.36
2019-03-22T05:11:48.648Z,96432.73
2019-03-22T05:14:20.765Z,96436.42
2019-03-22T05:16:53.150Z,96434.37
2019-03-22T05:19:25.518Z,96439.91
2019-03-22T05:21:57.314Z,96438.33
2019-03-22T05:24:28.938Z,96435.56
2019-03-22T05:27:00.793Z,96438.56
2019-03-22T05:29:34.112Z,96410.56
2019-03-22T05:32:08.687Z,96425.11
2019-03-22T05:34:38.800Z,96437.56
2019-03-22T05:37:08.866Z,96431.80
2019-03-22T05:39:39.545Z,96429.45
2019-03-22T05:42:09.658Z,96429.45
2019-03-22T05:44:39.594Z,96425.74
2019-03-22T05:47:09.546Z,96425.74
2019-03-22T05:49:39.487Z,96439.55
2019-03-22T05:52:09.823Z,96436.98
2019-03-22T05:54:40.019Z,96429.72
2019-03-22T05:57:13.745Z,96429.72
2019-03-22T05:59:43.200Z,96431.47
2019-03-22T06:02:13.450Z,96439.69
2019-03-22T06:04:43.510Z,96439.37
2019-03-22T06:07:13.718Z,96440.64
2019-03-22T06:09:43.850Z,96430.28
2019-03-22T06:12:13.983Z,96428.78
2019-03-22T06:14:44.094Z,96417.52
2019-03-22T06:17:14.329Z,96423.33
2019-03-22T06:19:44.383Z,96425.58
2019-03-22T06:22:14.429Z,96419.16
2019-03-22T06:24:44.606Z,96426.47
2019-03-22T06:27:14.914Z,96430.23
2019-03-22T06:29:53.755Z,96422.52
2019-03-22T06:32:16.969Z,96420.01
2019-03-22T06:34:47.047Z,96418.27
2019-03-22T06:37:17.088Z,96420.77
2019-03-22T06:39:47.275Z,96414.70
2019-03-22T06:42:17.510Z,96412.41
2019-03-22T06:44:47.739Z,96411.25
2019-03-22T06:47:18.034Z,96408.83
2019-03-22T06:49:48.280Z,96409.72
2019-03-22T06:52:18.455Z,96411.23
2019-03-22T06:54:48.797Z,96413.95
2019-03-22T06:57:18.996Z,96409.89
2019-03-22T06:59:49.158Z,96407.59
2019-03-22T07:02:19.285Z,96403.44
2019-03-22T07:04:49.521Z,96407.02
2019-03-22T07:07:19.791Z,96408.66
2019-03-22T07:09:50.099Z,96409.36
2019-03-22T07:12:20.316Z,96407.48
2019-03-22T07:14:50.597Z,96410.28
2019-03-22T07:17:20.954Z,96405.31
2019-03-22T07:19:51.208Z,96405.02
2019-03-22T07:22:21.396Z,96397.86
2019-03-22T07:24:51.730Z,96396.89
2019-03-22T07:27:22.156Z,96401.03
2019-03-22T07:29:52.349Z,96400.66
2019-03-22T07:32:22.604Z,96396.53
2019-03-22T07:34:52.740Z,96393.56
2019-03-22T07:37:22.923Z,96395.82
2019-03-22T07:39:53.168Z,96400.62
2019-03-22T07:42:23.320Z,96390.92
2019-03-22T07:44:53.549Z,96391.27
2019-03-22T07:47:23.671Z,96393.69
2019-03-22T07:49:53.838Z,96391.69
2019-03-22T07:52:24.052Z,96383.94
2019-03-22T07:54:54.230Z,96380.09
2019-03-22T07:57:24.371Z,96379.27
2019-03-22T07:59:54.561Z,96374.52
2019-03-22T08:02:25.707Z,96381.31
2019-03-22T08:04:56.069Z,96377.33
2019-03-22T08:07:26.338Z,96377.69
2019-03-22T08:09:56.552Z,96373.06
2019-03-22T08:12:26.614Z,96366.06
2019-03-22T08:14:56.945Z,96365.58
2019-03-22T08:17:27.150Z,96360.09
2019-03-22T08:19:57.497Z,96362.69
2019-03-22T08:22:27.688Z,96359.28
2019-03-22T08:24:57.762Z,96354.22
2019-03-22T08:27:27.738Z,96360.34
2019-03-22T08:29:58.915Z,96347.55
2019-03-22T08:32:29.084Z,96342.07
2019-03-22T08:34:59.297Z,96339.91
2019-03-22T08:37:29.623Z,96340.95
2019-03-22T08:39:59.965Z,96345.47
2019-03-22T08:42:30.253Z,96340.58
2019-03-22T08:45:01.305Z,96340.23
2019-03-22T08:47:34.111Z,96329.13
2019-03-22T08:50:03.428Z,96329.34
2019-03-22T08:52:33.610Z,96328.86
2019-03-22T08:55:04.146Z,96327.30
2019-03-22T08:57:34.208Z,96326.29
2019-03-22T09:00:05.141Z,96320.47
2019-03-22T09:02:35.490Z,96319.23
2019-03-22T09:05:06.458Z,96314.87
2019-03-22T09:07:36.524Z,96313.44
2019-03-22T09:10:07.972Z,96315.42
2019-03-22T09:12:38.227Z,96315.42
2019-03-22T09:15:08.875Z,96305.86
2019-03-22T09:17:39.021Z,96299.38
2019-03-22T09:20:09.450Z,96304.77
2019-03-22T09:22:39.673Z,96299.11
2019-03-22T09:25:10.004Z,96293.50
2019-03-22T09:27:40.359Z,96294.27
2019-03-22T09:30:11.899Z,96252.50
2019-03-22T09:32:42.115Z,96281.42
2019-03-22T09:35:12.394Z,96280.88
2019-03-22T09:37:42.670Z,96276.17
2019-03-22T09:40:12.915Z,96275.20
2019-03-22T09:42:43.117Z,96269.91
2019-03-22T09:45:14.501Z,96270.50
2019-03-22T09:47:44.672Z,96275.88
2019-03-22T09:50:14.964Z,96270.88
2019-03-22T09:52:45.275Z,96276.59
2019-03-22T09:55:15.616Z,96271.61
2019-03-22T09:57:45.932Z,96258.57
2019-03-22T10:00:30.042Z,96258.22
2019-03-22T10:03:00.822Z,96245.61
2019-03-22T10:05:31.296Z,96250.26
2019-03-22T10:08:01.635Z,96244.72
2019-03-22T10:10:31.749Z,96238.72
2019-03-22T10:13:01.918Z,96234.73
2019-03-22T10:15:32.197Z,96234.34
2019-03-22T10:18:02.247Z,96239.16
2019-03-22T10:20:32.297Z,96237.57
2019-03-22T10:23:02.332Z,96240.14
2019-03-22T10:25:32.481Z,96231.30
2019-03-22T10:28:02.717Z,96230.63
2019-03-22T10:30:32.978Z,96215.28
2019-03-22T10:33:03.212Z,96216.12
2019-03-22T10:35:33.429Z,96213.45
2019-03-22T10:38:06.272Z,96212.77
2019-03-22T10:40:35.570Z,96213.63
2019-03-22T10:43:05.762Z,96204.41
2019-03-22T10:45:35.966Z,96197.89
2019-03-22T10:48:06.142Z,96205.19
2019-03-22T10:50:36.360Z,96187.34
2019-03-22T10:53:06.817Z,96187.34
2019-03-22T10:55:36.989Z,96184.99
2019-03-22T10:58:20.268Z,96184.44
2019-03-22T11:00:38.972Z,96177.80
2019-03-22T11:03:09.165Z,96171.34
2019-03-22T11:05:39.356Z,96173.97
2019-03-22T11:08:09.635Z,96168.44
2019-03-22T11:10:39.914Z,96160.03
2019-03-22T11:13:10.052Z,96159.98
2019-03-22T11:15:48.117Z,96149.80
2019-03-22T11:18:12.298Z,96146.17
2019-03-22T11:20:42.585Z,96145.17
2019-03-22T11:23:12.814Z,96140.05
2019-03-22T11:25:43.121Z,96134.92
2019-03-22T11:28:13.352Z,96131.88
2019-03-22T11:30:43.687Z,96136.39
2019-03-22T11:33:13.755Z,96128.70
2019-03-22T11:35:44.023Z,96117.52
2019-03-22T11:38:14.192Z,96116.06
2019-03-22T11:40:44.604Z,96103.81
2019-03-22T11:43:14.691Z,96105.27
2019-03-22T11:45:44.845Z,96104.27
2019-03-22T11:48:15.308Z,96094.48
2019-03-22T11:50:45.601Z,96092.75
2019-03-22T11:53:15.758Z,96088.75
2019-03-22T11:55:46.216Z,96085.84
2019-03-22T11:58:16.438Z,96079.39
2019-03-22T12:00:46.648Z,96081.65
2019-03-22T12:03:16.838Z,96075.34
2019-03-22T12:05:47.124Z,96073.83
2019-03-22T12:08:17.402Z,96063.95
2019-03-22T12:10:47.446Z,96056.83
2019-03-22T12:13:17.675Z,96050.95
2019-03-22T12:15:47.956Z,96054.36
2019-03-22T12:18:18.136Z,96053.34
2019-03-22T12:20:48.513Z,96048.36
2019-03-22T12:23:18.639Z,96045.13
2019-03-22T12:25:48.989Z,96043.66
2019-03-22T12:28:19.123Z,96038.49
2019-03-22T12:30:49.422Z,96038.23
2019-03-22T12:33:19.757Z,96036.23
2019-03-22T12:35:50.033Z,96033.52
2019-03-22T12:38:20.369Z,96024.94
2019-03-22T12:40:50.588Z,96023.94
2019-03-22T12:43:20.780Z,96020.10
2019-03-22T12:45:50.944Z,96018.34
2019-03-22T12:48:21.337Z,96014.83
2019-03-22T12:50:51.637Z,96011.67
2019-03-22T12:53:20.999Z,96007.59
2019-03-22T12:55:51.240Z,96006.73
2019-03-22T12:58:21.433Z,96005.55
2019-03-22T13:00:51.715Z,96005.34
2019-03-22T13:03:21.904Z,95999.88
2019-03-22T13:05:52.039Z,95999.60
2019-03-22T13:08:22.161Z,95994.63
2019-03-22T13:10:52.373Z,95989.84
2019-03-22T13:13:22.486Z,95983.30
2019-03-22T13:15:52.738Z,95979.33
2019-03-22T13:18:22.870Z,95973.03
2019-03-22T13:20:53.125Z,95972.45
2019-03-22T13:23:23.341Z,95971.19
2019-03-22T13:25:53.653Z,95968.34
2019-03-22T13:28:23.999Z,95956.52
2019-03-22T13:30:54.157Z,95957.32
2019-03-22T13:33:24.209Z,95951.25
2019-03-22T13:35:54.439Z,95951.77
2019-03-22T13:38:24.721Z,95946.50
2019-03-22T13:40:54.785Z,95937.45
2019-03-22T13:43:25.159Z,95931.84
2019-03-22T13:45:55.384Z,95934.57
2019-03-22T13:48:25.533Z,95930.52
2019-03-22T13:50:55.620Z,95932.00
2019-03-22T13:53:25.809Z,95933.91
2019-03-22T13:55:56.036Z,95922.74
2019-03-22T13:58:26.230Z,95921.15
2019-03-22T14:00:56.365Z,95926.13
2019-03-22T14:03:26.446Z,95922.74
2019-03-22T14:05:57.617Z,95920.52
2019-03-22T14:08:27.746Z,95919.27
2019-03-22T14:10:57.931Z,95911.33
2019-03-22T14:13:27.966Z,95911.89
2019-03-22T14:15:58.065Z,95914.63
2019-03-22T14:18:28.168Z,95908.75
2019-03-22T14:20:58.308Z,95907.63
2019-03-22T14:23:28.518Z,95909.30
2019-03-22T14:25:58.770Z,95903.78
2019-03-22T14:28:28.936Z,95900.34
2019-03-22T14:30:59.223Z,95900.09
2019-03-22T14:33:29.274Z,95894.95
2019-03-22T14:35:59.555Z,95891.46
2019-03-22T14:38:29.732Z,95888.53
2019-03-22T14:40:59.776Z,95894.63
2019-03-22T14:43:29.962Z,95889.33
2019-03-22T14:46:00.242Z,95888.19
2019-03-22T14:48:30.421Z,95892.88
2019-03-22T14:51:00.764Z,95890.33
2019-03-22T14:53:31.014Z,95888.50
2019-03-22T14:56:02.234Z,95876.96
2019-03-22T14:58:32.368Z,95880.20
2019-03-22T15:01:02.830Z,95885.28
2019-03-22T15:03:32.947Z,95880.42
2019-03-22T15:06:03.032Z,95882.67
2019-03-22T15:08:33.252Z,95884.25
2019-03-22T15:11:03.608Z,95886.20
2019-03-22T15:13:55.432Z,95889.45
2019-03-22T15:16:50.559Z,95890.82
2019-03-22T15:19:38.604Z,95888.42
2019-03-22T15:22:27.750Z,95896.83
2019-03-22T15:25:15.633Z,95898.75
2019-03-22T15:28:11.535Z,95901.55
2019-03-22T15:31:09.770Z,95900.17
2019-03-22T15:36:50.271Z,95891.59
2019-03-22T15:39:38.342Z,95904.59
2019-03-22T15:42:08.441Z,95903.81
2019-03-22T15:44:38.524Z,95905.61
2019-03-22T15:47:08.738Z,95899.45
2019-03-22T15:49:39.053Z,95901.77
2019-03-22T15:52:09.241Z,95904.80
2019-03-22T15:54:39.475Z,95906.15
2019-03-22T15:57:09.785Z,95916.07
2019-03-22T15:59:39.875Z,95915.56
2019-03-22T16:02:10.301Z,95918.13
2019-03-22T16:04:40.546Z,95923.33
2019-03-22T16:07:10.830Z,95924.40
2019-03-22T16:09:41.073Z,95930.27
2019-03-22T16:12:11.353Z,95923.37
2019-03-22T16:14:41.647Z,95928.95
2019-03-22T16:17:11.800Z,95930.73
2019-03-22T16:19:41.974Z,95923.97
2019-03-22T16:22:12.161Z,95934.25
2019-03-22T16:24:42.220Z,95935.05
2019-03-22T16:27:12.605Z,95930.75
2019-03-22T16:29:42.848Z,95935.66
2019-03-22T16:32:13.011Z,95930.16
2019-03-22T16:34:43.297Z,95927.14
2019-03-22T16:37:13.591Z,95932.22
2019-03-22T16:39:43.845Z,95935.30
2019-03-22T16:42:14.091Z,95932.48
2019-03-22T16:44:44.364Z,95932.88
2019-03-22T16:47:14.665Z,95930.63
2019-03-22T16:49:45.039Z,95933.58
2019-03-22T16:52:15.246Z,95932.68
2019-03-22T16:54:45.530Z,95936.16
2019-03-22T16:57:16.729Z,95936.88
2019-03-22T16:59:46.876Z,95935.88
2019-03-22T17:02:16.957Z,95937.78
2019-03-22T17:04:47.155Z,95941.65
2019-03-22T17:07:17.123Z,95946.13
2019-03-22T17:09:47.456Z,95934.66
2019-03-22T17:12:17.717Z,95942.16
2019-03-22T17:14:48.856Z,95946.64
2019-03-22T17:17:19.164Z,95945.59
2019-03-22T17:19:49.236Z,95941.27
2019-03-22T17:22:19.354Z,95949.09
2019-03-22T17:24:49.591Z,95946.34
2019-03-22T17:27:19.912Z,95947.34
2019-03-22T17:29:50.300Z,95946.98
2019-03-22T17:32:20.641Z,95949.80
2019-03-22T17:34:50.909Z,95955.73
2019-03-22T17:37:21.037Z,95951.02
2019-03-22T17:39:51.207Z,95956.94
2019-03-22T17:42:21.492Z,95952.38
2019-03-22T17:44:51.736Z,95953.28
2019-03-22T17:47:21.946Z,95954.64
2019-03-22T17:49:52.187Z,95955.28
2019-03-22T17:52:22.354Z,95963.56
2019-03-22T17:54:52.562Z,95959.19
2019-03-22T17:57:22.833Z,95961.50
2019-03-22T17:59:53.078Z,95956.36
2019-03-22T18:02:23.398Z,95963.02
2019-03-22T18:04:53.692Z,95956.84
2019-03-22T18:07:23.789Z,95957.34
2019-03-22T18:09:54.001Z,95962.05
2019-03-22T18:12:24.274Z,95956.08
2019-03-22T18:14:54.643Z,95957.22
2019-03-22T18:17:24.732Z,95967.97
2019-03-22T18:19:54.866Z,95968.70
2019-03-22T18:22:25.038Z,95974.37
2019-03-22T18:24:55.257Z,95976.41
2019-03-22T18:27:25.455Z,95974.12
2019-03-22T18:29:55.685Z,95976.34
2019-03-22T18:32:28.075Z,95973.55
2019-03-22T18:50:42.424Z,95958.12
2019-03-22T18:53:12.634Z,95981.96
2019-03-22T18:55:42.707Z,95970.94
2019-03-22T18:58:12.841Z,95974.67
2019-03-22T19:00:44.285Z,95973.36
2019-03-22T19:03:14.679Z,95974.70
2019-03-22T19:05:45.382Z,95972.61
2019-03-22T19:08:15.433Z,95971.90
2019-03-22T19:10:45.478Z,95966.35
2019-03-22T19:13:15.673Z,95968.17
2019-03-22T19:15:45.978Z,95977.05
2019-03-22T19:18:16.135Z,95964.34
2019-03-22T19:20:46.357Z,95972.55
2019-03-22T19:23:16.619Z,95965.35
2019-03-22T19:25:46.790Z,95972.83
2019-03-22T19:28:16.872Z,95977.28
2019-03-22T19:30:47.074Z,95978.39
2019-03-22T19:33:17.143Z,95970.88
2019-03-22T19:35:49.124Z,95970.34
2019-03-22T19:38:19.520Z,95973.73
2019-03-22T19:40:49.664Z,95974.43
2019-03-22T19:43:19.788Z,95970.52
2019-03-22T19:45:49.943Z,95973.55
2019-03-22T19:48:19.905Z,95978.30
2019-03-22T19:50:50.195Z,95973.83
2019-03-22T19:53:20.386Z,95972.82
2019-03-22T19:55:50.622Z,95967.98
2019-03-22T19:58:20.678Z,95966.41
2019-03-22T20:35:40.198Z,95984.41
2019-03-22T20:38:10.697Z,95982.81
2019-03-22T20:40:40.805Z,95982.02
2019-03-22T20:43:11.539Z,95983.44
2019-03-22T20:45:41.829Z,95980.84
2019-03-22T20:48:14.759Z,95983.98
2019-03-22T20:50:45.195Z,95989.81
2019-03-22T20:53:15.508Z,95987.55
2019-03-22T20:55:45.756Z,95989.25
2019-03-22T20:58:17.385Z,95989.25
2019-03-22T21:00:47.752Z,95987.64
2019-03-22T21:03:18.008Z,95986.73
2019-03-22T21:05:48.284Z,95986.48
2019-03-22T21:08:18.560Z,95988.58
2019-03-22T21:10:49.716Z,95984.29
2019-03-22T21:14:18.704Z,95980.83
2019-03-22T21:16:49.006Z,95984.03
2019-03-22T21:19:19.292Z,95978.70
2019-03-22T21:21:51.744Z,95980.58
2019-03-22T21:24:22.446Z,95973.39
2019-03-22T21:26:52.985Z,95971.76
2019-03-22T21:29:23.437Z,95976.46
2019-03-22T21:31:53.702Z,95983.19
2019-03-22T21:34:26.433Z,95978.31
2019-03-22T21:36:56.890Z,95977.12
2019-03-22T21:39:27.165Z,95976.97
2019-03-22T21:41:58.984Z,95985.88
2019-03-22T21:44:29.334Z,95987.53
2019-03-22T21:47:01.193Z,95988.09
2019-03-22T21:49:33.669Z,95992.29
2019-03-22T21:52:03.815Z,95987.95
2019-03-22T21:54:35.563Z,95986.78
2019-03-22T21:57:05.703Z,95991.56
2019-03-22T21:59:36.008Z,95995.44
2019-03-22T22:02:06.290Z,95990.41
2019-03-22T22:04:36.402Z,95990.81
2019-03-22T22:07:06.580Z,95996.41
2019-03-22T22:09:36.938Z,95996.38
2019-03-22T22:12:07.119Z,95990.93
2019-03-22T22:14:41.126Z,95993.52
2019-03-22T22:17:09.142Z,95993.96
2019-03-22T22:19:39.262Z,95992.72
2019-03-22T22:22:12.184Z,95992.28
2019-03-22T22:24:42.405Z,95993.06
2019-03-22T22:27:14.141Z,95998.81
2019-03-22T22:29:44.749Z,95994.54
2019-03-22T22:32:15.853Z,95990.35
2019-03-22T22:34:46.189Z,95991.97
2019-03-22T22:37:16.311Z,95988.49
2019-03-22T22:39:48.562Z,95988.49
2019-03-22T22:42:20.328Z,95996.20
2019-03-22T22:44:50.911Z,95990.03
2019-03-22T22:47:21.088Z,95982.88
2019-03-22T22:49:52.315Z,95982.88
2019-03-22T22:52:22.544Z,95990.11
2019-03-22T22:54:52.640Z,95990.11
2019-03-22T22:57:22.868Z,95983.84
2019-03-22T22:59:53.004Z,95988.84
2019-03-22T23:02:23.305Z,95987.20
2019-03-22T23:04:53.334Z,95987.20
2019-03-22T23:07:24.278Z,95992.72
2019-03-22T23:09:56.104Z,96007.84
2019-03-22T23:12:29.885Z,95993.69
2019-03-22T23:14:59.984Z,95993.69
2019-03-22T23:17:31.507Z,96003.04
2019-03-22T23:20:03.636Z,96001.30
2019-03-22T23:22:34.035Z,96005.00
2019-03-22T23:25:05.503Z,96006.91
2019-03-22T23:27:39.516Z,96005.75
2019-03-22T23:30:11.091Z,96007.07
2019-03-22T23:32:42.648Z,96009.04
2019-03-22T23:35:13.917Z,96009.39
2019-03-22T23:37:47.868Z,95998.84
2019-03-22T23:40:18.536Z,95998.84
2019-03-22T23:42:49.743Z,95997.91
2019-03-22T23:45:21.127Z,95997.94
2019-03-22T23:47:52.964Z,96000.84
2019-03-22T23:50:24.470Z,95999.55
2019-03-22T23:52:54.618Z,95994.88
2019-03-22T23:55:25.785Z,95991.49
2019-03-22T23:57:55.976Z,95982.17
